sensor_id;sensor_type;location;lat;lon;timestamp;temperature;humidity
42037;DHT22;75222;52.004;5.908;2024-02-16T00:00:07;13.10;95.70
42037;DHT22;75222;52.004;5.908;2024-02-16T00:02:32;13.20;95.70
42037;DHT22;75222;52.004;5.908;2024-02-16T00:04:58;13.20;95.60
42037;DHT22;75222;52.004;5.908;2024-02-16T00:07:24;13.10;95.50
42037;DHT22;75222;52.004;5.908;2024-02-16T00:09:52;13.10;95.50
42037;DHT22;75222;52.004;5.908;2024-02-16T00:12:18;13.10;95.40
42037;DHT22;75222;52.004;5.908;2024-02-16T00:14:43;13.10;95.20
42037;DHT22;75222;52.004;5.908;2024-02-16T00:17:11;13.10;95.20
42037;DHT22;75222;52.004;5.908;2024-02-16T00:19:37;13.20;95.30
42037;DHT22;75222;52.004;5.908;2024-02-16T00:22:02;13.20;95.20
42037;DHT22;75222;52.004;5.908;2024-02-16T00:24:28;13.20;95.20
42037;DHT22;75222;52.004;5.908;2024-02-16T00:26:55;13.20;95.10
42037;DHT22;75222;52.004;5.908;2024-02-16T00:29:20;13.10;95.10
42037;DHT22;75222;52.004;5.908;2024-02-16T00:31:46;13.10;95.20
42037;DHT22;75222;52.004;5.908;2024-02-16T00:34:11;13.10;95.20
42037;DHT22;75222;52.004;5.908;2024-02-16T00:36:37;13.10;95.10
42037;DHT22;75222;52.004;5.908;2024-02-16T00:39:02;13.00;95.10
42037;DHT22;75222;52.004;5.908;2024-02-16T00:41:29;13.00;95.20
42037;DHT22;75222;52.004;5.908;2024-02-16T00:43:55;13.00;95.30
42037;DHT22;75222;52.004;5.908;2024-02-16T00:46:22;13.00;95.20
42037;DHT22;75222;52.004;5.908;2024-02-16T00:48:49;13.00;95.30
42037;DHT22;75222;52.004;5.908;2024-02-16T00:51:14;13.00;95.20
42037;DHT22;75222;52.004;5.908;2024-02-16T00:53:40;13.00;95.10
42037;DHT22;75222;52.004;5.908;2024-02-16T00:56:06;13.00;95.20
42037;DHT22;75222;52.004;5.908;2024-02-16T00:58:32;12.90;95.10
42037;DHT22;75222;52.004;5.908;2024-02-16T01:00:58;12.90;95.10
42037;DHT22;75222;52.004;5.908;2024-02-16T01:03:24;12.90;95.10
42037;DHT22;75222;52.004;5.908;2024-02-16T01:05:54;12.80;95.10
42037;DHT22;75222;52.004;5.908;2024-02-16T01:08:20;12.80;95.30
42037;DHT22;75222;52.004;5.908;2024-02-16T01:10:45;12.80;95.30
42037;DHT22;75222;52.004;5.908;2024-02-16T01:13:12;12.80;95.30
42037;DHT22;75222;52.004;5.908;2024-02-16T01:15:38;12.80;95.30
42037;DHT22;75222;52.004;5.908;2024-02-16T01:18:06;12.90;95.20
42037;DHT22;75222;52.004;5.908;2024-02-16T01:20:31;12.80;95.20
42037;DHT22;75222;52.004;5.908;2024-02-16T01:22:57;12.80;95.20
42037;DHT22;75222;52.004;5.908;2024-02-16T01:25:23;12.90;95.30
42037;DHT22;75222;52.004;5.908;2024-02-16T01:27:48;12.90;95.20
42037;DHT22;75222;52.004;5.908;2024-02-16T01:30:14;12.90;95.10
42037;DHT22;75222;52.004;5.908;2024-02-16T01:32:41;12.90;95.10
42037;DHT22;75222;52.004;5.908;2024-02-16T01:35:07;12.90;95.10
42037;DHT22;75222;52.004;5.908;2024-02-16T01:37:32;12.90;95.00
42037;DHT22;75222;52.004;5.908;2024-02-16T01:39:58;12.90;95.00
42037;DHT22;75222;52.004;5.908;2024-02-16T01:42:24;12.80;94.90
42037;DHT22;75222;52.004;5.908;2024-02-16T01:44:50;12.80;94.90
42037;DHT22;75222;52.004;5.908;2024-02-16T01:47:16;12.80;95.00
42037;DHT22;75222;52.004;5.908;2024-02-16T01:49:44;12.80;95.00
42037;DHT22;75222;52.004;5.908;2024-02-16T01:52:10;12.70;94.90
42037;DHT22;75222;52.004;5.908;2024-02-16T01:54:36;12.80;94.90
42037;DHT22;75222;52.004;5.908;2024-02-16T01:57:02;12.70;94.90
42037;DHT22;75222;52.004;5.908;2024-02-16T01:59:29;12.80;95.00
42037;DHT22;75222;52.004;5.908;2024-02-16T02:01:55;12.70;94.80
42037;DHT22;75222;52.004;5.908;2024-02-16T02:04:20;12.70;94.70
42037;DHT22;75222;52.004;5.908;2024-02-16T02:06:46;12.60;94.90
42037;DHT22;75222;52.004;5.908;2024-02-16T02:09:12;12.60;95.00
42037;DHT22;75222;52.004;5.908;2024-02-16T02:11:37;12.60;95.00
42037;DHT22;75222;52.004;5.908;2024-02-16T02:14:03;12.70;95.10
42037;DHT22;75222;52.004;5.908;2024-02-16T02:16:28;12.70;95.00
42037;DHT22;75222;52.004;5.908;2024-02-16T02:18:54;12.60;95.00
42037;DHT22;75222;52.004;5.908;2024-02-16T02:21:19;12.60;95.00
42037;DHT22;75222;52.004;5.908;2024-02-16T02:23:46;12.60;95.00
42037;DHT22;75222;52.004;5.908;2024-02-16T02:26:14;12.70;95.00
42037;DHT22;75222;52.004;5.908;2024-02-16T02:28:42;12.60;94.90
42037;DHT22;75222;52.004;5.908;2024-02-16T02:31:07;12.60;94.70
42037;DHT22;75222;52.004;5.908;2024-02-16T02:33:34;12.60;94.90
42037;DHT22;75222;52.004;5.908;2024-02-16T02:36:00;12.60;94.90
42037;DHT22;75222;52.004;5.908;2024-02-16T02:38:26;12.60;94.90
42037;DHT22;75222;52.004;5.908;2024-02-16T02:40:52;12.60;94.80
42037;DHT22;75222;52.004;5.908;2024-02-16T02:43:18;12.60;94.90
42037;DHT22;75222;52.004;5.908;2024-02-16T02:45:44;12.60;94.90
42037;DHT22;75222;52.004;5.908;2024-02-16T02:48:10;12.60;94.90
42037;DHT22;75222;52.004;5.908;2024-02-16T02:50:35;12.60;94.80
42037;DHT22;75222;52.004;5.908;2024-02-16T02:53:01;12.70;94.80
42037;DHT22;75222;52.004;5.908;2024-02-16T02:55:26;12.70;94.70
42037;DHT22;75222;52.004;5.908;2024-02-16T02:57:52;12.70;94.60
42037;DHT22;75222;52.004;5.908;2024-02-16T03:00:18;12.70;94.60
42037;DHT22;75222;52.004;5.908;2024-02-16T03:02:43;12.70;94.60
42037;DHT22;75222;52.004;5.908;2024-02-16T03:05:10;12.70;94.60
42037;DHT22;75222;52.004;5.908;2024-02-16T03:07:36;12.70;94.50
42037;DHT22;75222;52.004;5.908;2024-02-16T03:10:03;12.70;94.40
42037;DHT22;75222;52.004;5.908;2024-02-16T03:12:29;12.70;94.50
42037;DHT22;75222;52.004;5.908;2024-02-16T03:14:55;12.80;94.50
42037;DHT22;75222;52.004;5.908;2024-02-16T03:17:20;12.80;94.40
42037;DHT22;75222;52.004;5.908;2024-02-16T03:19:46;12.70;94.40
42037;DHT22;75222;52.004;5.908;2024-02-16T03:22:12;12.80;94.40
42037;DHT22;75222;52.004;5.908;2024-02-16T03:24:38;12.80;94.40
42037;DHT22;75222;52.004;5.908;2024-02-16T03:27:03;12.80;94.40
42037;DHT22;75222;52.004;5.908;2024-02-16T03:29:29;12.70;94.40
42037;DHT22;75222;52.004;5.908;2024-02-16T03:31:55;12.70;94.40
42037;DHT22;75222;52.004;5.908;2024-02-16T03:34:20;12.70;94.30
42037;DHT22;75222;52.004;5.908;2024-02-16T03:36:46;12.70;94.40
42037;DHT22;75222;52.004;5.908;2024-02-16T03:39:11;12.80;94.50
42037;DHT22;75222;52.004;5.908;2024-02-16T03:41:37;12.80;94.40
42037;DHT22;75222;52.004;5.908;2024-02-16T03:44:02;12.90;94.40
42037;DHT22;75222;52.004;5.908;2024-02-16T03:46:28;12.90;94.30
42037;DHT22;75222;52.004;5.908;2024-02-16T03:48:54;12.80;94.20
42037;DHT22;75222;52.004;5.908;2024-02-16T03:51:20;12.90;94.20
42037;DHT22;75222;52.004;5.908;2024-02-16T03:53:46;12.90;94.20
42037;DHT22;75222;52.004;5.908;2024-02-16T03:56:11;12.90;94.20
42037;DHT22;75222;52.004;5.908;2024-02-16T03:58:37;12.90;94.10
42037;DHT22;75222;52.004;5.908;2024-02-16T04:01:04;12.80;94.10
42037;DHT22;75222;52.004;5.908;2024-02-16T04:03:32;12.90;94.20
42037;DHT22;75222;52.004;5.908;2024-02-16T04:05:57;12.80;94.10
42037;DHT22;75222;52.004;5.908;2024-02-16T04:08:25;12.80;94.10
42037;DHT22;75222;52.004;5.908;2024-02-16T04:10:50;12.90;94.20
42037;DHT22;75222;52.004;5.908;2024-02-16T04:13:16;12.90;94.20
42037;DHT22;75222;52.004;5.908;2024-02-16T04:15:41;12.90;94.10
42037;DHT22;75222;52.004;5.908;2024-02-16T04:18:07;12.90;94.10
42037;DHT22;75222;52.004;5.908;2024-02-16T04:20:32;12.80;94.00
42037;DHT22;75222;52.004;5.908;2024-02-16T04:22:58;12.80;94.00
42037;DHT22;75222;52.004;5.908;2024-02-16T04:25:24;12.80;94.00
42037;DHT22;75222;52.004;5.908;2024-02-16T04:27:49;12.80;94.00
42037;DHT22;75222;52.004;5.908;2024-02-16T04:30:15;12.80;94.00
42037;DHT22;75222;52.004;5.908;2024-02-16T04:32:40;12.80;93.90
42037;DHT22;75222;52.004;5.908;2024-02-16T04:35:06;12.80;93.80
42037;DHT22;75222;52.004;5.908;2024-02-16T04:37:37;12.80;93.60
42037;DHT22;75222;52.004;5.908;2024-02-16T04:40:04;12.80;93.50
42037;DHT22;75222;52.004;5.908;2024-02-16T04:42:31;12.80;93.40
42037;DHT22;75222;52.004;5.908;2024-02-16T04:44:56;12.80;93.30
42037;DHT22;75222;52.004;5.908;2024-02-16T04:47:22;12.80;93.20
42037;DHT22;75222;52.004;5.908;2024-02-16T04:49:47;12.90;93.20
42037;DHT22;75222;52.004;5.908;2024-02-16T04:52:13;12.90;92.90
42037;DHT22;75222;52.004;5.908;2024-02-16T04:54:38;12.90;92.70
42037;DHT22;75222;52.004;5.908;2024-02-16T04:57:06;13.00;92.90
42037;DHT22;75222;52.004;5.908;2024-02-16T04:59:31;13.00;92.60
42037;DHT22;75222;52.004;5.908;2024-02-16T05:01:57;13.00;92.20
42037;DHT22;75222;52.004;5.908;2024-02-16T05:04:22;13.00;92.20
42037;DHT22;75222;52.004;5.908;2024-02-16T05:06:48;13.00;92.00
42037;DHT22;75222;52.004;5.908;2024-02-16T05:09:14;13.10;91.80
42037;DHT22;75222;52.004;5.908;2024-02-16T05:11:42;13.10;91.90
42037;DHT22;75222;52.004;5.908;2024-02-16T05:14:08;13.10;91.90
42037;DHT22;75222;52.004;5.908;2024-02-16T05:16:33;13.10;91.70
42037;DHT22;75222;52.004;5.908;2024-02-16T05:18:59;13.10;91.70
42037;DHT22;75222;52.004;5.908;2024-02-16T05:21:24;13.20;91.60
42037;DHT22;75222;52.004;5.908;2024-02-16T05:23:50;13.20;91.50
42037;DHT22;75222;52.004;5.908;2024-02-16T05:26:15;13.20;91.40
42037;DHT22;75222;52.004;5.908;2024-02-16T05:28:41;13.20;91.40
42037;DHT22;75222;52.004;5.908;2024-02-16T05:31:14;13.10;91.30
42037;DHT22;75222;52.004;5.908;2024-02-16T05:33:49;13.20;91.30
42037;DHT22;75222;52.004;5.908;2024-02-16T05:36:18;13.20;91.30
42037;DHT22;75222;52.004;5.908;2024-02-16T05:38:46;13.20;91.10
42037;DHT22;75222;52.004;5.908;2024-02-16T05:41:12;13.20;91.10
42037;DHT22;75222;52.004;5.908;2024-02-16T05:43:38;13.20;91.10
42037;DHT22;75222;52.004;5.908;2024-02-16T05:46:04;13.20;91.10
42037;DHT22;75222;52.004;5.908;2024-02-16T05:48:33;13.30;91.20
42037;DHT22;75222;52.004;5.908;2024-02-16T05:51:00;13.30;91.30
42037;DHT22;75222;52.004;5.908;2024-02-16T05:53:27;13.30;91.20
42037;DHT22;75222;52.004;5.908;2024-02-16T05:55:53;13.30;91.30
42037;DHT22;75222;52.004;5.908;2024-02-16T05:58:19;13.30;91.30
42037;DHT22;75222;52.004;5.908;2024-02-16T06:00:44;13.30;91.20
42037;DHT22;75222;52.004;5.908;2024-02-16T06:03:12;13.20;91.20
42037;DHT22;75222;52.004;5.908;2024-02-16T06:05:38;13.30;91.20
42037;DHT22;75222;52.004;5.908;2024-02-16T06:08:06;13.30;91.10
42037;DHT22;75222;52.004;5.908;2024-02-16T06:10:32;13.30;91.10
42037;DHT22;75222;52.004;5.908;2024-02-16T06:12:58;13.30;91.10
42037;DHT22;75222;52.004;5.908;2024-02-16T06:15:24;13.30;91.00
42037;DHT22;75222;52.004;5.908;2024-02-16T06:17:49;13.30;91.00
42037;DHT22;75222;52.004;5.908;2024-02-16T06:20:18;13.30;91.10
42037;DHT22;75222;52.004;5.908;2024-02-16T06:22:43;13.30;91.00
42037;DHT22;75222;52.004;5.908;2024-02-16T06:25:09;13.30;91.10
42037;DHT22;75222;52.004;5.908;2024-02-16T06:27:35;13.30;91.10
42037;DHT22;75222;52.004;5.908;2024-02-16T06:30:04;13.30;91.10
42037;DHT22;75222;52.004;5.908;2024-02-16T06:32:30;13.30;91.10
42037;DHT22;75222;52.004;5.908;2024-02-16T06:34:57;13.30;91.10
42037;DHT22;75222;52.004;5.908;2024-02-16T06:37:22;13.30;91.10
42037;DHT22;75222;52.004;5.908;2024-02-16T06:39:48;13.30;91.40
42037;DHT22;75222;52.004;5.908;2024-02-16T06:42:14;13.40;91.00
42037;DHT22;75222;52.004;5.908;2024-02-16T06:44:40;13.40;90.80
42037;DHT22;75222;52.004;5.908;2024-02-16T06:47:06;13.40;90.70
42037;DHT22;75222;52.004;5.908;2024-02-16T06:49:32;13.40;90.80
42037;DHT22;75222;52.004;5.908;2024-02-16T06:51:57;13.40;90.70
42037;DHT22;75222;52.004;5.908;2024-02-16T06:54:23;13.50;90.70
42037;DHT22;75222;52.004;5.908;2024-02-16T06:56:51;13.50;90.70
42037;DHT22;75222;52.004;5.908;2024-02-16T06:59:17;13.50;90.70
42037;DHT22;75222;52.004;5.908;2024-02-16T07:01:43;13.50;90.70
42037;DHT22;75222;52.004;5.908;2024-02-16T07:04:08;13.50;90.60
42037;DHT22;75222;52.004;5.908;2024-02-16T07:06:35;13.50;90.50
42037;DHT22;75222;52.004;5.908;2024-02-16T07:09:00;13.50;90.50
42037;DHT22;75222;52.004;5.908;2024-02-16T07:11:26;13.60;90.50
42037;DHT22;75222;52.004;5.908;2024-02-16T07:13:51;13.60;90.50
42037;DHT22;75222;52.004;5.908;2024-02-16T07:16:17;13.60;90.50
42037;DHT22;75222;52.004;5.908;2024-02-16T07:18:44;13.60;90.60
42037;DHT22;75222;52.004;5.908;2024-02-16T07:21:09;13.60;90.60
42037;DHT22;75222;52.004;5.908;2024-02-16T07:23:35;13.70;90.60
42037;DHT22;75222;52.004;5.908;2024-02-16T07:26:01;13.70;90.60
42037;DHT22;75222;52.004;5.908;2024-02-16T07:28:27;13.70;90.60
42037;DHT22;75222;52.004;5.908;2024-02-16T07:30:53;13.70;90.60
42037;DHT22;75222;52.004;5.908;2024-02-16T07:33:18;13.70;90.60
42037;DHT22;75222;52.004;5.908;2024-02-16T07:35:44;13.70;90.70
42037;DHT22;75222;52.004;5.908;2024-02-16T07:38:10;13.70;90.70
42037;DHT22;75222;52.004;5.908;2024-02-16T07:40:35;13.70;90.70
42037;DHT22;75222;52.004;5.908;2024-02-16T07:43:01;13.70;90.70
42037;DHT22;75222;52.004;5.908;2024-02-16T07:45:28;13.70;90.60
42037;DHT22;75222;52.004;5.908;2024-02-16T07:47:54;13.80;90.60
42037;DHT22;75222;52.004;5.908;2024-02-16T07:50:20;13.80;90.60
42037;DHT22;75222;52.004;5.908;2024-02-16T07:52:46;13.80;90.70
42037;DHT22;75222;52.004;5.908;2024-02-16T07:55:12;13.80;90.60
42037;DHT22;75222;52.004;5.908;2024-02-16T07:57:37;13.80;90.50
42037;DHT22;75222;52.004;5.908;2024-02-16T08:00:09;13.70;90.40
42037;DHT22;75222;52.004;5.908;2024-02-16T08:02:36;13.70;90.50
42037;DHT22;75222;52.004;5.908;2024-02-16T08:05:02;13.80;90.60
42037;DHT22;75222;52.004;5.908;2024-02-16T08:07:27;13.80;90.60
42037;DHT22;75222;52.004;5.908;2024-02-16T08:09:53;13.80;90.60
42037;DHT22;75222;52.004;5.908;2024-02-16T08:12:19;13.80;90.60
42037;DHT22;75222;52.004;5.908;2024-02-16T08:14:44;13.80;90.70
42037;DHT22;75222;52.004;5.908;2024-02-16T08:17:11;13.90;90.70
42037;DHT22;75222;52.004;5.908;2024-02-16T08:19:38;13.90;90.70
42037;DHT22;75222;52.004;5.908;2024-02-16T08:22:05;13.90;90.70
42037;DHT22;75222;52.004;5.908;2024-02-16T08:24:37;13.90;90.80
42037;DHT22;75222;52.004;5.908;2024-02-16T08:27:04;13.90;90.80
42037;DHT22;75222;52.004;5.908;2024-02-16T08:29:30;14.00;90.80
42037;DHT22;75222;52.004;5.908;2024-02-16T08:31:56;14.00;90.80
42037;DHT22;75222;52.004;5.908;2024-02-16T08:34:21;14.00;90.80
42037;DHT22;75222;52.004;5.908;2024-02-16T08:36:48;14.00;90.80
42037;DHT22;75222;52.004;5.908;2024-02-16T08:39:15;14.10;90.80
42037;DHT22;75222;52.004;5.908;2024-02-16T08:41:41;14.10;90.90
42037;DHT22;75222;52.004;5.908;2024-02-16T08:44:07;14.10;90.80
42037;DHT22;75222;52.004;5.908;2024-02-16T08:46:36;14.10;90.80
42037;DHT22;75222;52.004;5.908;2024-02-16T08:49:02;14.20;90.80
42037;DHT22;75222;52.004;5.908;2024-02-16T08:51:28;14.20;90.80
42037;DHT22;75222;52.004;5.908;2024-02-16T08:53:54;14.20;90.80
42037;DHT22;75222;52.004;5.908;2024-02-16T08:56:20;14.20;90.70
42037;DHT22;75222;52.004;5.908;2024-02-16T08:58:45;14.20;90.70
42037;DHT22;75222;52.004;5.908;2024-02-16T09:01:11;14.20;90.70
42037;DHT22;75222;52.004;5.908;2024-02-16T09:03:36;14.20;90.70
42037;DHT22;75222;52.004;5.908;2024-02-16T09:06:04;14.30;90.70
42037;DHT22;75222;52.004;5.908;2024-02-16T09:08:30;14.40;90.70
42037;DHT22;75222;52.004;5.908;2024-02-16T09:11:01;14.40;90.70
42037;DHT22;75222;52.004;5.908;2024-02-16T09:13:33;14.40;90.70
42037;DHT22;75222;52.004;5.908;2024-02-16T09:16:00;14.40;90.70
42037;DHT22;75222;52.004;5.908;2024-02-16T09:18:25;14.40;90.70
42037;DHT22;75222;52.004;5.908;2024-02-16T09:20:52;14.40;90.70
42037;DHT22;75222;52.004;5.908;2024-02-16T09:23:18;14.50;90.80
42037;DHT22;75222;52.004;5.908;2024-02-16T09:25:43;14.50;90.80
42037;DHT22;75222;52.004;5.908;2024-02-16T09:28:11;14.50;90.80
42037;DHT22;75222;52.004;5.908;2024-02-16T09:30:37;14.50;90.80
42037;DHT22;75222;52.004;5.908;2024-02-16T09:33:03;14.50;90.80
42037;DHT22;75222;52.004;5.908;2024-02-16T09:35:28;14.50;90.70
42037;DHT22;75222;52.004;5.908;2024-02-16T09:37:54;14.60;90.80
42037;DHT22;75222;52.004;5.908;2024-02-16T09:40:20;14.60;90.80
42037;DHT22;75222;52.004;5.908;2024-02-16T09:42:48;14.60;90.80
42037;DHT22;75222;52.004;5.908;2024-02-16T09:45:17;14.60;90.80
42037;DHT22;75222;52.004;5.908;2024-02-16T09:47:44;14.60;90.80
42037;DHT22;75222;52.004;5.908;2024-02-16T09:50:10;14.60;90.80
42037;DHT22;75222;52.004;5.908;2024-02-16T09:52:36;14.60;90.90
42037;DHT22;75222;52.004;5.908;2024-02-16T09:55:03;14.60;90.90
42037;DHT22;75222;52.004;5.908;2024-02-16T09:57:32;14.60;91.00
42037;DHT22;75222;52.004;5.908;2024-02-16T09:59:57;14.60;91.00
42037;DHT22;75222;52.004;5.908;2024-02-16T10:02:23;14.60;91.00
42037;DHT22;75222;52.004;5.908;2024-02-16T10:04:49;14.60;91.10
42037;DHT22;75222;52.004;5.908;2024-02-16T10:07:15;14.60;91.10
42037;DHT22;75222;52.004;5.908;2024-02-16T10:09:40;14.60;91.20
42037;DHT22;75222;52.004;5.908;2024-02-16T10:12:06;14.60;91.10
42037;DHT22;75222;52.004;5.908;2024-02-16T10:14:32;14.60;91.20
42037;DHT22;75222;52.004;5.908;2024-02-16T10:17:05;14.70;91.20
42037;DHT22;75222;52.004;5.908;2024-02-16T10:19:32;14.70;91.20
42037;DHT22;75222;52.004;5.908;2024-02-16T10:22:11;14.70;91.10
42037;DHT22;75222;52.004;5.908;2024-02-16T10:24:37;14.80;91.20
42037;DHT22;75222;52.004;5.908;2024-02-16T10:27:17;14.80;91.20
42037;DHT22;75222;52.004;5.908;2024-02-16T10:29:47;14.80;91.20
42037;DHT22;75222;52.004;5.908;2024-02-16T10:32:16;14.80;91.20
42037;DHT22;75222;52.004;5.908;2024-02-16T10:34:43;14.80;91.20
42037;DHT22;75222;52.004;5.908;2024-02-16T10:37:12;14.80;91.20
42037;DHT22;75222;52.004;5.908;2024-02-16T10:39:39;14.70;91.30
42037;DHT22;75222;52.004;5.908;2024-02-16T10:42:06;14.70;91.30
42037;DHT22;75222;52.004;5.908;2024-02-16T10:44:34;14.80;91.40
42037;DHT22;75222;52.004;5.908;2024-02-16T10:47:01;14.80;91.40
42037;DHT22;75222;52.004;5.908;2024-02-16T10:49:26;14.70;91.70
42037;DHT22;75222;52.004;5.908;2024-02-16T10:51:54;14.70;91.50
42037;DHT22;75222;52.004;5.908;2024-02-16T10:54:25;14.70;91.90
42037;DHT22;75222;52.004;5.908;2024-02-16T10:56:53;14.70;91.60
42037;DHT22;75222;52.004;5.908;2024-02-16T10:59:19;14.70;91.70
42037;DHT22;75222;52.004;5.908;2024-02-16T11:01:45;14.60;91.70
42037;DHT22;75222;52.004;5.908;2024-02-16T11:04:18;14.60;91.80
42037;DHT22;75222;52.004;5.908;2024-02-16T11:06:56;14.60;91.90
42037;DHT22;75222;52.004;5.908;2024-02-16T11:09:38;14.60;91.90
42037;DHT22;75222;52.004;5.908;2024-02-16T11:12:05;14.60;92.00
42037;DHT22;75222;52.004;5.908;2024-02-16T11:14:43;14.50;92.00
42037;DHT22;75222;52.004;5.908;2024-02-16T11:19:41;14.50;92.20
42037;DHT22;75222;52.004;5.908;2024-02-16T11:22:07;14.40;92.20
42037;DHT22;75222;52.004;5.908;2024-02-16T11:24:35;14.40;92.30
42037;DHT22;75222;52.004;5.908;2024-02-16T11:27:21;14.40;92.40
42037;DHT22;75222;52.004;5.908;2024-02-16T11:29:48;14.30;92.50
42037;DHT22;75222;52.004;5.908;2024-02-16T11:32:14;14.30;92.60
42037;DHT22;75222;52.004;5.908;2024-02-16T11:34:39;14.20;92.70
42037;DHT22;75222;52.004;5.908;2024-02-16T11:37:05;14.20;92.80
42037;DHT22;75222;52.004;5.908;2024-02-16T11:39:31;14.10;92.90
42037;DHT22;75222;52.004;5.908;2024-02-16T11:42:05;14.10;93.00
42037;DHT22;75222;52.004;5.908;2024-02-16T11:44:32;14.10;93.10
42037;DHT22;75222;52.004;5.908;2024-02-16T11:46:59;14.00;93.20
42037;DHT22;75222;52.004;5.908;2024-02-16T11:49:26;14.00;93.30
42037;DHT22;75222;52.004;5.908;2024-02-16T11:51:51;14.00;93.40
42037;DHT22;75222;52.004;5.908;2024-02-16T11:54:17;14.00;93.60
42037;DHT22;75222;52.004;5.908;2024-02-16T11:56:44;13.90;93.70
42037;DHT22;75222;52.004;5.908;2024-02-16T11:59:15;13.90;93.90
42037;DHT22;75222;52.004;5.908;2024-02-16T12:01:58;13.80;93.90
42037;DHT22;75222;52.004;5.908;2024-02-16T12:04:28;13.80;94.20
42037;DHT22;75222;52.004;5.908;2024-02-16T12:06:58;13.80;94.20
42037;DHT22;75222;52.004;5.908;2024-02-16T12:09:24;13.80;94.40
42037;DHT22;75222;52.004;5.908;2024-02-16T12:11:51;13.80;94.40
42037;DHT22;75222;52.004;5.908;2024-02-16T12:14:18;13.80;94.50
42037;DHT22;75222;52.004;5.908;2024-02-16T12:16:50;13.70;94.50
42037;DHT22;75222;52.004;5.908;2024-02-16T12:19:19;13.70;94.50
42037;DHT22;75222;52.004;5.908;2024-02-16T12:21:49;13.70;94.60
42037;DHT22;75222;52.004;5.908;2024-02-16T12:24:16;13.80;94.70
42037;DHT22;75222;52.004;5.908;2024-02-16T12:26:41;13.80;94.70
42037;DHT22;75222;52.004;5.908;2024-02-16T12:29:07;13.80;94.60
42037;DHT22;75222;52.004;5.908;2024-02-16T12:31:34;13.90;94.70
42037;DHT22;75222;52.004;5.908;2024-02-16T12:34:03;13.90;94.70
42037;DHT22;75222;52.004;5.908;2024-02-16T12:36:30;13.90;94.70
42037;DHT22;75222;52.004;5.908;2024-02-16T12:38:56;13.80;94.70
42037;DHT22;75222;52.004;5.908;2024-02-16T12:41:22;13.80;94.80
42037;DHT22;75222;52.004;5.908;2024-02-16T12:43:47;13.90;94.80
42037;DHT22;75222;52.004;5.908;2024-02-16T12:46:13;13.90;94.90
42037;DHT22;75222;52.004;5.908;2024-02-16T12:48:38;13.90;94.80
42037;DHT22;75222;52.004;5.908;2024-02-16T12:51:04;13.80;94.90
42037;DHT22;75222;52.004;5.908;2024-02-16T12:53:30;13.80;95.00
42037;DHT22;75222;52.004;5.908;2024-02-16T12:56:06;13.80;95.00
42037;DHT22;75222;52.004;5.908;2024-02-16T12:58:32;13.80;95.10
42037;DHT22;75222;52.004;5.908;2024-02-16T13:00:58;13.80;95.20
42037;DHT22;75222;52.004;5.908;2024-02-16T13:03:23;13.80;95.20
42037;DHT22;75222;52.004;5.908;2024-02-16T13:05:49;13.80;95.20
42037;DHT22;75222;52.004;5.908;2024-02-16T13:08:14;13.80;95.30
42037;DHT22;75222;52.004;5.908;2024-02-16T13:10:40;13.80;95.30
42037;DHT22;75222;52.004;5.908;2024-02-16T13:13:06;13.80;95.30
42037;DHT22;75222;52.004;5.908;2024-02-16T13:15:31;13.80;95.40
42037;DHT22;75222;52.004;5.908;2024-02-16T13:17:57;13.80;95.40
42037;DHT22;75222;52.004;5.908;2024-02-16T13:20:23;13.80;95.40
42037;DHT22;75222;52.004;5.908;2024-02-16T13:22:49;13.70;95.50
42037;DHT22;75222;52.004;5.908;2024-02-16T13:25:15;13.70;95.60
42037;DHT22;75222;52.004;5.908;2024-02-16T13:27:41;13.70;95.70
42037;DHT22;75222;52.004;5.908;2024-02-16T13:30:07;13.70;95.70
42037;DHT22;75222;52.004;5.908;2024-02-16T13:32:33;13.70;95.70
42037;DHT22;75222;52.004;5.908;2024-02-16T13:34:59;13.70;95.70
42037;DHT22;75222;52.004;5.908;2024-02-16T13:37:25;13.70;95.80
42037;DHT22;75222;52.004;5.908;2024-02-16T13:39:50;13.60;95.80
42037;DHT22;75222;52.004;5.908;2024-02-16T13:42:16;13.60;95.90
42037;DHT22;75222;52.004;5.908;2024-02-16T13:44:42;13.50;96.00
42037;DHT22;75222;52.004;5.908;2024-02-16T13:47:08;13.60;96.10
42037;DHT22;75222;52.004;5.908;2024-02-16T13:49:34;13.70;96.10
42037;DHT22;75222;52.004;5.908;2024-02-16T13:52:00;13.70;96.00
42037;DHT22;75222;52.004;5.908;2024-02-16T13:54:26;13.70;95.90
42037;DHT22;75222;52.004;5.908;2024-02-16T13:56:51;13.70;95.90
42037;DHT22;75222;52.004;5.908;2024-02-16T13:59:18;13.70;95.90
42037;DHT22;75222;52.004;5.908;2024-02-16T14:01:44;13.70;95.90
42037;DHT22;75222;52.004;5.908;2024-02-16T14:04:09;13.70;95.90
42037;DHT22;75222;52.004;5.908;2024-02-16T14:06:35;13.80;96.00
42037;DHT22;75222;52.004;5.908;2024-02-16T14:09:04;13.80;95.90
42037;DHT22;75222;52.004;5.908;2024-02-16T14:11:35;13.90;95.80
42037;DHT22;75222;52.004;5.908;2024-02-16T14:14:01;13.90;95.80
42037;DHT22;75222;52.004;5.908;2024-02-16T14:16:27;13.90;95.80
42037;DHT22;75222;52.004;5.908;2024-02-16T14:18:52;13.90;95.70
42037;DHT22;75222;52.004;5.908;2024-02-16T14:21:18;13.90;95.70
42037;DHT22;75222;52.004;5.908;2024-02-16T14:23:44;13.90;95.80
42037;DHT22;75222;52.004;5.908;2024-02-16T14:26:09;13.90;95.70
42037;DHT22;75222;52.004;5.908;2024-02-16T14:28:35;13.90;95.70
42037;DHT22;75222;52.004;5.908;2024-02-16T14:31:01;13.90;95.70
42037;DHT22;75222;52.004;5.908;2024-02-16T14:33:28;13.90;95.70
42037;DHT22;75222;52.004;5.908;2024-02-16T14:35:53;13.90;95.80
42037;DHT22;75222;52.004;5.908;2024-02-16T14:38:19;13.90;95.70
42037;DHT22;75222;52.004;5.908;2024-02-16T14:40:44;13.90;95.80
42037;DHT22;75222;52.004;5.908;2024-02-16T14:43:10;13.90;95.90
42037;DHT22;75222;52.004;5.908;2024-02-16T14:45:35;13.90;95.90
42037;DHT22;75222;52.004;5.908;2024-02-16T14:48:04;13.90;95.80
42037;DHT22;75222;52.004;5.908;2024-02-16T14:50:30;14.00;95.70
42037;DHT22;75222;52.004;5.908;2024-02-16T14:52:56;14.00;95.70
42037;DHT22;75222;52.004;5.908;2024-02-16T14:55:22;13.90;95.60
42037;DHT22;75222;52.004;5.908;2024-02-16T14:57:47;13.90;95.60
42037;DHT22;75222;52.004;5.908;2024-02-16T15:00:13;13.90;95.60
42037;DHT22;75222;52.004;5.908;2024-02-16T15:02:39;13.90;95.60
42037;DHT22;75222;52.004;5.908;2024-02-16T15:05:07;13.90;95.60
42037;DHT22;75222;52.004;5.908;2024-02-16T15:07:33;14.00;95.60
42037;DHT22;75222;52.004;5.908;2024-02-16T15:09:58;14.00;95.50
42037;DHT22;75222;52.004;5.908;2024-02-16T15:12:24;14.00;95.60
42037;DHT22;75222;52.004;5.908;2024-02-16T15:14:50;14.00;95.60
42037;DHT22;75222;52.004;5.908;2024-02-16T15:17:16;13.90;95.50
42037;DHT22;75222;52.004;5.908;2024-02-16T15:19:42;13.90;95.60
42037;DHT22;75222;52.004;5.908;2024-02-16T15:22:08;13.90;95.60
42037;DHT22;75222;52.004;5.908;2024-02-16T15:24:34;13.90;95.90
42037;DHT22;75222;52.004;5.908;2024-02-16T15:26:59;13.90;95.60